If you wish to contribute or participate in the discussions about articles you are invited to join SKYbrary as a registered user

 Actions

Kushiro Airport

From SKYbrary Wiki

RJCK
Airport
ICAO: RJCK – IATA: KUH
Summary
Name Kushiro Airport
Region Asia and Pacific
Territory Japan JP.gif
Location Kushiro, Hokkaidō
Serving Kushiro
Elevation 94.793 m
311 ft
311 ft94.793 m
Coordinates 43° 2' 27.67" N, 144° 11' 35.25" E
Runways
Designator Length Width Surface ROPS
17/35 2500 m8,202.1 ft
46 m150.919 ft
ASP yes/yes


METAR
Observation RJCK 160100Z 34018G30KT 310V030 9999 FEW050 16/M06 Q1003
Station Kushiro Airport
Date/Time 16 April 2019 01:00:00
Wind direction 340°
Wind speed 18 kts
Lowest cloud amount few clouds
Temperature 16°C
Dew point
Humidity 21%
QNH 1003 hPa
Weather condition n/a

Kushiro Airport is an airport located 9 nm16,668 m
16.668 km
54,685.039 ft
west northwest of Kushiro, Hokkaidō, Japan.

Climatology

Humid Continental climate (Köppen climate classification Dfb) - Variable weather patterns and a large seasonal temperature variance. Summers are often warm and humid with frequent thunderstorms and winters can be very cold with frequent snowfall and persistent snow cover.

Maps

Terrain

Loading map...

Airport Layout

Loading map...


Accidents & Serious Incidents at or in vicinity of RJCK

None on SKYbrary